createdAt,value
2018-09-17T00:02:20.783Z,70.53
2018-09-17T00:04:58.274Z,70.76
2018-09-17T00:07:36.199Z,71.04
2018-09-17T00:10:15.576Z,70.77
2018-09-17T00:12:55.691Z,70.57
2018-09-17T00:15:33.631Z,70.52
2018-09-17T00:18:12.248Z,71.14
2018-09-17T00:20:50.085Z,70.70
2018-09-17T00:23:29.385Z,70.86
2018-09-17T00:26:08.064Z,70.87
2018-09-17T00:28:37.571Z,70.96
2018-09-17T00:31:07.201Z,71.01
2018-09-17T00:33:36.717Z,71.46
2018-09-17T00:36:06.910Z,71.34
2018-09-17T00:38:36.354Z,71.32
2018-09-17T00:41:06.527Z,71.27
2018-09-17T00:43:35.959Z,71.19
2018-09-17T00:46:06.105Z,71.80
2018-09-17T00:48:35.459Z,71.50
2018-09-17T00:51:06.399Z,71.34
2018-09-17T00:53:35.773Z,71.32
2018-09-17T00:56:06.265Z,71.09
2018-09-17T00:58:35.860Z,71.43
2018-09-17T01:01:06.612Z,71.15
2018-09-17T01:03:35.976Z,70.74
2018-09-17T01:06:05.415Z,72.06
2018-09-17T01:08:34.822Z,71.21
2018-09-17T01:11:04.293Z,71.31
2018-09-17T01:13:34.517Z,70.90
2018-09-17T01:16:04.458Z,71.34
2018-09-17T01:18:33.850Z,71.20
2018-09-17T01:21:03.205Z,71.57
2018-09-17T01:23:32.558Z,71.51
2018-09-17T01:26:02.380Z,71.59
2018-09-17T01:28:31.822Z,71.30
2018-09-17T01:31:01.787Z,72.02
2018-09-17T01:33:31.733Z,71.79
2018-09-17T01:36:01.073Z,72.09
2018-09-17T01:38:30.584Z,71.78
2018-09-17T01:40:59.969Z,71.27
2018-09-17T01:43:29.341Z,71.05
2018-09-17T01:45:58.707Z,71.65
2018-09-17T01:48:28.129Z,71.34
2018-09-17T01:50:57.502Z,71.47
2018-09-17T01:53:26.889Z,71.51
2018-09-17T01:55:56.265Z,72.12
2018-09-17T01:58:25.599Z,71.96
2018-09-17T02:00:55.173Z,71.60
2018-09-17T02:03:24.604Z,71.97
2018-09-17T02:05:54.409Z,71.93
2018-09-17T02:08:24.066Z,72.37
2018-09-17T02:10:53.601Z,71.70
2018-09-17T02:13:23.234Z,71.90
2018-09-17T02:15:52.878Z,72.23
2018-09-17T02:18:22.694Z,71.52
2018-09-17T02:20:52.374Z,71.73
2018-09-17T02:23:21.922Z,72.02
2018-09-17T02:25:51.446Z,72.26
2018-09-17T02:28:20.937Z,71.66
2018-09-17T02:30:50.463Z,71.63
2018-09-17T02:33:20.070Z,72.15
2018-09-17T02:35:49.514Z,71.90
2018-09-17T02:38:18.990Z,72.41
2018-09-17T02:40:48.341Z,72.59
2018-09-17T02:43:17.764Z,71.99
2018-09-17T02:45:47.142Z,72.56
2018-09-17T02:48:16.527Z,73.24
2018-09-17T02:50:45.867Z,72.20
2018-09-17T02:53:15.221Z,72.31
2018-09-17T02:55:45.410Z,72.96
2018-09-17T02:58:20.783Z,72.27
2018-09-17T03:00:50.258Z,72.63
2018-09-17T03:03:19.611Z,72.31
2018-09-17T03:05:52.534Z,72.33
2018-09-17T03:08:22.120Z,72.65
2018-09-17T03:10:51.499Z,72.92
2018-09-17T03:13:20.910Z,73.11
2018-09-17T03:15:53.545Z,72.58
2018-09-17T03:18:39.798Z,72.20
2018-09-17T03:21:09.177Z,72.86
2018-09-17T03:23:39.031Z,72.07
2018-09-17T03:26:09.155Z,72.35
2018-09-17T03:28:38.524Z,72.67
2018-09-17T03:31:07.885Z,72.61
2018-09-17T03:33:37.298Z,72.31
2018-09-17T03:36:06.795Z,72.59
2018-09-17T03:38:47.731Z,72.40
2018-09-17T03:41:18.118Z,72.55
2018-09-17T03:43:48.813Z,72.23
2018-09-17T03:46:18.236Z,72.34
2018-09-17T03:48:47.686Z,73.16
2018-09-17T03:51:17.446Z,72.47
2018-09-17T03:53:46.846Z,72.56
2018-09-17T03:56:16.188Z,73.14
2018-09-17T03:58:45.688Z,72.86
2018-09-17T04:01:15.685Z,72.69
2018-09-17T04:03:45.136Z,72.60
2018-09-17T04:06:15.112Z,73.02
2018-09-17T04:08:44.474Z,72.49
2018-09-17T04:11:14.041Z,73.10
2018-09-17T04:13:43.714Z,72.85
2018-09-17T04:16:13.126Z,72.76
2018-09-17T04:18:42.537Z,72.66
2018-09-17T04:21:12.582Z,73.11
2018-09-17T04:23:41.980Z,73.27
2018-09-17T04:26:12.505Z,73.47
2018-09-17T04:28:41.944Z,73.56
2018-09-17T04:31:11.353Z,73.30
2018-09-17T04:33:42.974Z,73.43
2018-09-17T04:36:14.087Z,73.87
2018-09-17T04:38:43.470Z,74.10
2018-09-17T04:41:12.949Z,73.68
2018-09-17T04:43:42.450Z,73.76
2018-09-17T04:46:11.887Z,73.99
2018-09-17T04:48:41.238Z,74.32
2018-09-17T04:51:17.342Z,73.84
2018-09-17T04:53:46.776Z,74.10
2018-09-17T04:56:16.154Z,74.18
2018-09-17T04:58:45.674Z,74.62
2018-09-17T05:01:15.152Z,74.22
2018-09-17T05:03:44.541Z,74.05
2018-09-17T05:06:13.967Z,73.60
2018-09-17T05:08:43.374Z,73.37
2018-09-17T05:11:12.814Z,73.55
2018-09-17T05:13:42.266Z,73.26
2018-09-17T05:16:12.744Z,73.79
2018-09-17T05:18:42.111Z,74.10
2018-09-17T05:21:11.523Z,73.82
2018-09-17T05:23:40.888Z,73.91
2018-09-17T05:26:10.390Z,73.79
2018-09-17T05:28:39.794Z,73.80
2018-09-17T05:31:09.223Z,74.09
2018-09-17T05:33:39.621Z,73.95
2018-09-17T05:36:09.070Z,73.92
2018-09-17T05:38:38.524Z,73.64
2018-09-17T05:41:07.887Z,74.34
2018-09-17T05:43:37.309Z,73.42
2018-09-17T05:46:06.824Z,74.19
2018-09-17T05:48:36.406Z,74.15
2018-09-17T05:51:06.141Z,73.26
2018-09-17T05:53:35.532Z,73.53
2018-09-17T05:56:05.010Z,73.74
2018-09-17T05:58:34.469Z,73.33
2018-09-17T06:01:03.887Z,73.29
2018-09-17T06:03:33.287Z,73.07
2018-09-17T06:06:02.784Z,72.91
2018-09-17T06:08:32.157Z,73.24
2018-09-17T06:11:01.782Z,72.99
2018-09-17T06:13:31.151Z,72.05
2018-09-17T06:16:00.704Z,71.99
2018-09-17T06:18:30.197Z,71.84
2018-09-17T06:20:59.754Z,71.95
2018-09-17T06:23:29.206Z,72.25
2018-09-17T06:25:58.673Z,71.90
2018-09-17T06:28:28.261Z,71.88
2018-09-17T06:30:59.702Z,71.69
2018-09-17T06:33:29.168Z,71.03
2018-09-17T06:35:58.656Z,71.19
2018-09-17T06:38:29.766Z,71.52
2018-09-17T06:41:00.183Z,71.05
2018-09-17T06:43:29.693Z,71.01
2018-09-17T06:46:07.323Z,70.64
2018-09-17T06:48:37.229Z,69.39
2018-09-17T06:51:07.005Z,68.99
2018-09-17T06:53:36.492Z,69.58
2018-09-17T06:56:06.962Z,68.66
2018-09-17T06:58:38.327Z,68.97
2018-09-17T07:01:13.369Z,68.28
2018-09-17T07:03:42.837Z,68.29
2018-09-17T07:06:12.429Z,68.76
2018-09-17T07:08:41.898Z,68.52
2018-09-17T07:11:11.826Z,68.05
2018-09-17T07:13:41.866Z,68.53
2018-09-17T07:16:11.402Z,67.97
2018-09-17T07:18:40.880Z,67.88
2018-09-17T07:21:10.362Z,67.89
2018-09-17T07:23:39.854Z,67.80
2018-09-17T07:26:09.332Z,67.12
2018-09-17T07:28:38.915Z,67.37
2018-09-17T07:31:08.406Z,67.58
2018-09-17T07:33:39.684Z,67.91
2018-09-17T07:36:09.099Z,66.79
2018-09-17T07:38:38.553Z,67.21
2018-09-17T07:41:08.109Z,66.43
2018-09-17T07:43:37.534Z,66.20
2018-09-17T07:46:07.104Z,66.44
2018-09-17T07:48:36.514Z,66.30
2018-09-17T07:51:06.218Z,65.38
2018-09-17T07:53:35.633Z,65.27
2018-09-17T07:56:05.184Z,65.05
2018-09-17T07:58:34.668Z,64.68
2018-09-17T08:01:04.330Z,64.36
2018-09-17T08:03:33.796Z,65.10
2018-09-17T08:06:03.240Z,64.90
2018-09-17T08:08:33.960Z,64.60
2018-09-17T08:11:03.450Z,64.28
2018-09-17T08:13:32.913Z,63.81
2018-09-17T08:16:02.834Z,63.76
2018-09-17T08:18:32.559Z,63.60
2018-09-17T08:21:05.054Z,62.82
2018-09-17T08:23:34.560Z,62.65
2018-09-17T08:26:03.978Z,62.72
2018-09-17T08:28:33.385Z,62.68
2018-09-17T08:31:06.303Z,62.35
2018-09-17T08:33:36.093Z,62.38
2018-09-17T08:36:06.533Z,61.94
2018-09-17T08:38:36.174Z,61.65
2018-09-17T08:41:06.557Z,62.41
2018-09-17T08:43:36.980Z,61.67
2018-09-17T08:46:07.059Z,62.19
2018-09-17T08:48:36.452Z,61.16
2018-09-17T08:51:06.253Z,61.88
2018-09-17T08:53:35.629Z,60.49
2018-09-17T08:56:11.875Z,61.18
2018-09-17T09:00:49.527Z,61.20
2018-09-17T09:03:24.300Z,60.90
2018-09-17T09:05:58.788Z,61.21
2018-09-17T09:08:28.185Z,60.68
2018-09-17T09:11:02.733Z,61.18
2018-09-17T09:13:39.010Z,60.49
2018-09-17T09:16:09.358Z,60.22
2018-09-17T09:18:38.814Z,60.86
2018-09-17T09:21:08.277Z,59.62
2018-09-17T09:23:38.316Z,60.06
2018-09-17T09:26:08.045Z,60.04
2018-09-17T09:28:37.631Z,59.49
2018-09-17T09:31:07.010Z,58.47
2018-09-17T09:33:36.754Z,58.65
2018-09-17T09:36:06.231Z,58.98
2018-09-17T09:38:35.680Z,58.54
2018-09-17T09:41:06.522Z,59.30
2018-09-17T09:43:35.930Z,59.28
2018-09-17T09:46:06.431Z,58.96
2018-09-17T09:48:35.926Z,57.67
2018-09-17T09:51:06.666Z,57.70
2018-09-17T09:53:36.228Z,58.03
2018-09-17T09:56:06.190Z,57.69
2018-09-17T09:58:36.886Z,56.97
2018-09-17T10:01:12.665Z,57.89
2018-09-17T10:03:43.814Z,56.56
2018-09-17T10:06:15.465Z,56.45
2018-09-17T10:08:50.160Z,56.42
2018-09-17T10:11:24.723Z,55.37
2018-09-17T10:13:59.399Z,55.89
2018-09-17T10:16:29.637Z,54.88
2018-09-17T10:19:04.216Z,55.10
2018-09-17T10:21:33.687Z,54.23
2018-09-17T10:24:03.066Z,54.41
2018-09-17T10:26:32.457Z,54.24
2018-09-17T10:29:02.053Z,53.98
2018-09-17T10:31:31.523Z,54.58
2018-09-17T10:34:00.982Z,54.36
2018-09-17T10:36:30.486Z,53.24
2018-09-17T10:38:59.970Z,53.21
2018-09-17T10:41:29.424Z,53.46
2018-09-17T10:43:58.831Z,52.91
2018-09-17T10:46:29.546Z,52.92
2018-09-17T10:48:58.990Z,53.14
2018-09-17T10:51:28.490Z,52.78
2018-09-17T10:53:58.028Z,52.25
2018-09-17T10:56:27.447Z,51.61
2018-09-17T10:58:56.898Z,52.48
2018-09-17T11:01:26.319Z,51.00
2018-09-17T11:03:59.306Z,51.16
2018-09-17T11:06:28.710Z,51.30
2018-09-17T11:08:58.173Z,50.38
2018-09-17T11:11:27.549Z,50.57
2018-09-17T11:13:56.974Z,51.56
2018-09-17T11:16:26.340Z,51.46
2018-09-17T11:18:55.898Z,50.48
2018-09-17T11:21:25.333Z,49.52
2018-09-17T11:23:54.713Z,49.49
2018-09-17T11:26:25.398Z,49.88
2018-09-17T11:28:54.859Z,50.05
2018-09-17T11:31:24.311Z,50.48
2018-09-17T11:33:53.795Z,50.42
2018-09-17T11:36:23.291Z,49.74
2018-09-17T11:38:52.717Z,49.72
2018-09-17T11:41:22.106Z,49.59
2018-09-17T11:43:51.593Z,49.00
2018-09-17T11:46:21.104Z,49.52
2018-09-17T11:48:50.590Z,49.32
2018-09-17T11:51:19.995Z,48.98
2018-09-17T11:53:49.442Z,48.10
2018-09-17T11:56:18.935Z,48.06
2018-09-17T11:58:48.413Z,48.27
2018-09-17T12:02:24.385Z,48.12
2018-09-17T12:05:03.696Z,44.82
2018-09-17T12:07:43.628Z,45.68
2018-09-17T12:10:13.045Z,45.40
2018-09-17T12:12:42.459Z,44.69
2018-09-17T12:15:11.922Z,44.76
2018-09-17T12:17:41.358Z,44.05
2018-09-17T12:20:10.802Z,43.27
2018-09-17T12:22:40.150Z,44.13
2018-09-17T12:25:09.570Z,43.12
2018-09-17T12:27:38.950Z,41.81
2018-09-17T12:30:08.376Z,42.36
2018-09-17T12:32:37.739Z,42.06
2018-09-17T12:35:07.221Z,41.05
2018-09-17T12:37:36.606Z,40.91
2018-09-17T12:40:06.307Z,40.62
2018-09-17T12:42:35.700Z,40.81
2018-09-17T12:45:06.559Z,39.63
2018-09-17T12:47:36.001Z,39.75
2018-09-17T12:50:06.387Z,38.59
2018-09-17T12:52:35.782Z,38.45
2018-09-17T12:55:05.147Z,37.78
2018-09-17T12:57:34.531Z,37.94
2018-09-17T13:00:04.031Z,36.88
2018-09-17T13:02:37.108Z,37.18
2018-09-17T13:05:06.669Z,36.67
2018-09-17T13:07:36.103Z,35.27
2018-09-17T13:10:06.462Z,36.54
2018-09-17T13:12:35.894Z,36.25
2018-09-17T13:15:07.205Z,36.03
2018-09-17T13:17:36.915Z,36.63
2018-09-17T13:20:06.998Z,36.19
2018-09-17T13:22:36.397Z,35.87
2018-09-17T13:25:06.191Z,36.34
2018-09-17T13:27:35.667Z,36.39
2018-09-17T13:30:07.020Z,35.49
2018-09-17T13:32:36.470Z,34.58
2018-09-17T13:35:07.169Z,34.67
2018-09-17T13:37:36.605Z,34.62
2018-09-17T13:40:06.121Z,34.47
2018-09-17T13:42:35.682Z,36.59
2018-09-17T13:45:08.343Z,36.09
2018-09-17T13:47:37.880Z,34.56
2018-09-17T13:50:07.923Z,34.66
2018-09-17T13:52:37.623Z,35.02
2018-09-17T13:55:08.225Z,34.03
2018-09-17T13:57:37.829Z,35.60
2018-09-17T14:00:07.450Z,34.20
2018-09-17T14:02:36.963Z,33.99
2018-09-17T14:05:07.405Z,32.03
2018-09-17T14:07:36.879Z,33.50
2018-09-17T14:10:06.960Z,32.72
2018-09-17T14:12:36.338Z,32.73
2018-09-17T14:15:06.627Z,33.01
2018-09-17T14:17:36.069Z,31.08
2018-09-17T14:20:07.655Z,30.97
2018-09-17T14:22:37.615Z,30.33
2018-09-17T14:25:07.339Z,29.77
2018-09-17T14:27:36.887Z,29.82
2018-09-17T14:30:06.834Z,29.03
2018-09-17T14:32:41.530Z,29.25
2018-09-17T14:35:11.253Z,29.64
2018-09-17T14:37:40.651Z,29.00
2018-09-17T14:40:10.177Z,28.32
2018-09-17T14:42:39.674Z,27.95
2018-09-17T14:45:09.152Z,28.84
2018-09-17T14:47:38.594Z,27.81
2018-09-17T14:50:08.718Z,28.81
2018-09-17T14:52:38.374Z,27.01
2018-09-17T14:55:07.798Z,27.09
2018-09-17T14:57:37.246Z,27.17
2018-09-17T15:00:06.821Z,25.58
2018-09-17T15:02:36.279Z,25.86
2018-09-17T15:05:06.372Z,25.55
2018-09-17T15:07:36.020Z,24.31
2018-09-17T15:10:07.071Z,24.11
2018-09-17T15:12:36.788Z,24.18
2018-09-17T15:15:06.890Z,23.49
2018-09-17T15:17:36.361Z,24.35
2018-09-17T15:20:06.162Z,24.14
2018-09-17T15:22:35.602Z,23.59
2018-09-17T15:25:06.409Z,22.87
2018-09-17T15:27:35.866Z,22.76
2018-09-17T15:30:07.371Z,22.34
2018-09-17T15:32:36.878Z,21.66
2018-09-17T15:35:06.523Z,22.42
2018-09-17T15:37:35.981Z,22.22
2018-09-17T15:40:05.636Z,22.70
2018-09-17T15:42:35.050Z,22.72
2018-09-17T15:45:04.393Z,22.20
2018-09-17T15:47:33.882Z,22.31
2018-09-17T15:50:03.313Z,22.68
2018-09-17T15:52:32.852Z,22.64
2018-09-17T15:55:02.458Z,22.74
2018-09-17T15:57:31.871Z,23.23
2018-09-17T16:00:01.332Z,23.09
2018-09-17T16:02:30.893Z,22.32
2018-09-17T16:05:02.495Z,21.68
2018-09-17T16:07:31.983Z,21.44
2018-09-17T16:10:01.518Z,21.17
2018-09-17T16:12:31.204Z,20.36
2018-09-17T16:15:00.580Z,20.49
2018-09-17T16:17:30.036Z,20.97
2018-09-17T16:19:59.794Z,21.38
2018-09-17T16:22:29.146Z,21.24
2018-09-17T16:24:58.758Z,21.15
2018-09-17T16:27:29.771Z,20.32
2018-09-17T16:29:59.293Z,20.55
2018-09-17T16:32:28.807Z,20.52
2018-09-17T16:34:58.307Z,20.45
2018-09-17T16:37:27.724Z,20.65
2018-09-17T16:39:57.285Z,21.24
2018-09-17T16:42:32.057Z,21.59
2018-09-17T16:45:01.454Z,21.87
2018-09-17T16:47:30.855Z,21.72
2018-09-17T16:50:00.300Z,22.65
2018-09-17T16:52:29.836Z,22.52
2018-09-17T16:54:59.261Z,22.81
2018-09-17T16:57:28.660Z,22.47
2018-09-17T16:59:58.198Z,23.47
2018-09-17T17:02:27.617Z,23.25
2018-09-17T17:04:57.104Z,23.33
2018-09-17T17:07:30.974Z,22.17
2018-09-17T17:10:00.465Z,22.72
2018-09-17T17:12:29.809Z,25.13
2018-09-17T17:14:59.275Z,26.02
2018-09-17T17:17:28.690Z,27.69
2018-09-17T17:19:58.247Z,29.30
2018-09-17T17:22:27.773Z,30.26
2018-09-17T17:24:57.213Z,31.71
2018-09-17T17:27:26.862Z,31.99
2018-09-17T17:29:56.272Z,33.33
2018-09-17T17:32:25.734Z,33.99
2018-09-17T17:34:55.114Z,34.68
2018-09-17T17:37:24.584Z,35.48
2018-09-17T17:39:54.154Z,36.85
2018-09-17T17:42:25.483Z,37.83
2018-09-17T17:44:55.341Z,38.29
2018-09-17T17:47:24.761Z,39.35
2018-09-17T17:49:54.256Z,40.05
2018-09-17T17:52:23.852Z,39.97
2018-09-17T17:54:53.175Z,40.87
2018-09-17T17:57:22.632Z,41.43
2018-09-17T17:59:52.067Z,42.48
2018-09-17T18:02:21.501Z,42.87
2018-09-17T18:04:50.958Z,43.92
2018-09-17T18:07:20.976Z,45.17
2018-09-17T18:09:50.469Z,44.77
2018-09-17T18:12:19.989Z,46.48
2018-09-17T18:14:49.436Z,46.06
2018-09-17T18:17:18.862Z,46.87
2018-09-17T18:19:48.535Z,47.46
2018-09-17T18:22:18.189Z,48.17
2018-09-17T18:24:47.658Z,48.36
2018-09-17T18:27:22.756Z,48.58
2018-09-17T18:29:52.158Z,49.70
2018-09-17T18:32:21.618Z,49.08
2018-09-17T18:34:51.115Z,50.35
2018-09-17T18:37:20.509Z,50.25
2018-09-17T18:40:03.069Z,51.67
2018-09-17T18:42:32.892Z,52.00
2018-09-17T18:45:02.561Z,52.43
2018-09-17T18:47:33.021Z,52.92
2018-09-17T18:50:02.468Z,53.36
2018-09-17T18:52:32.178Z,53.41
2018-09-17T18:55:05.040Z,54.18
2018-09-17T18:57:34.523Z,54.03
2018-09-17T19:00:04.022Z,54.15
2018-09-17T19:02:33.434Z,54.40
2018-09-17T19:05:02.951Z,56.46
2018-09-17T19:07:32.363Z,56.23
2018-09-17T19:10:01.935Z,56.54
2018-09-17T19:12:33.206Z,55.94
2018-09-17T19:15:09.371Z,56.42
2018-09-17T19:17:41.820Z,56.63
2018-09-17T19:20:12.622Z,57.70
2018-09-17T19:22:47.167Z,58.05
2018-09-17T19:25:16.791Z,58.03
2018-09-17T19:27:51.410Z,58.46
2018-09-17T19:30:21.303Z,58.84
2018-09-17T19:32:50.691Z,58.74
2018-09-17T19:35:20.117Z,58.18
2018-09-17T19:37:54.849Z,58.48
2018-09-17T19:40:24.390Z,59.60
2018-09-17T19:42:53.670Z,58.89
2018-09-17T19:45:29.363Z,59.07
2018-09-17T19:47:58.890Z,59.27
2018-09-17T19:50:35.980Z,59.62
2018-09-17T19:53:06.406Z,59.94
2018-09-17T19:55:35.866Z,60.03
2018-09-17T19:58:16.198Z,60.54
2018-09-17T20:00:45.637Z,61.14
2018-09-17T20:03:15.021Z,61.26
2018-09-17T20:05:49.577Z,60.74
2018-09-17T20:08:19.443Z,60.51
2018-09-17T20:10:49.147Z,61.06
2018-09-17T20:13:18.703Z,61.35
2018-09-17T20:15:49.381Z,61.60
2018-09-17T20:18:24.129Z,61.83
2018-09-17T20:20:53.483Z,61.23
2018-09-17T20:23:23.093Z,61.71
2018-09-17T20:25:54.612Z,61.55
2018-09-17T20:28:24.191Z,61.59
2018-09-17T20:30:53.797Z,62.10
2018-09-17T20:33:25.823Z,61.86
2018-09-17T20:35:55.262Z,62.67
2018-09-17T20:38:24.704Z,62.79
2018-09-17T20:40:54.034Z,62.64
2018-09-17T20:43:23.790Z,62.46
2018-09-17T20:45:54.042Z,62.42
2018-09-17T20:48:23.451Z,62.91
2018-09-17T20:50:53.222Z,63.26
2018-09-17T20:53:22.977Z,63.30
2018-09-17T20:55:56.336Z,63.22
2018-09-17T20:58:29.531Z,63.00
2018-09-17T21:00:59.710Z,63.30
2018-09-17T21:03:29.285Z,63.11
2018-09-17T21:05:59.857Z,63.44
2018-09-17T21:08:31.680Z,63.39
2018-09-17T21:11:01.134Z,63.65
2018-09-17T21:13:30.639Z,63.97
2018-09-17T21:16:00.935Z,63.56
2018-09-17T21:18:30.469Z,63.93
2018-09-17T21:21:04.101Z,63.95
2018-09-17T21:23:33.625Z,64.33
2018-09-17T21:26:03.085Z,64.09
2018-09-17T21:28:32.650Z,64.59
2018-09-17T21:31:02.048Z,64.39
2018-09-17T21:33:31.616Z,64.60
2018-09-17T21:36:00.996Z,64.73
2018-09-17T21:38:30.415Z,65.51
2018-09-17T21:40:59.946Z,64.91
2018-09-17T21:43:29.394Z,65.31
2018-09-17T21:45:58.770Z,64.81
2018-09-17T21:48:28.185Z,64.86
2018-09-17T21:50:57.570Z,64.70
2018-09-17T21:53:36.030Z,65.24
2018-09-17T21:56:06.213Z,65.11
2018-09-17T21:58:35.616Z,64.81
2018-09-17T22:01:06.234Z,64.71
2018-09-17T22:03:37.151Z,64.70
2018-09-17T22:06:06.556Z,64.28
2018-09-17T22:08:35.981Z,64.74
2018-09-17T22:11:06.112Z,64.13
2018-09-17T22:13:35.537Z,64.19
2018-09-17T22:16:06.140Z,64.88
2018-09-17T22:18:35.719Z,64.61
2018-09-17T22:21:06.352Z,64.40
2018-09-17T22:23:35.757Z,64.38
2018-09-17T22:26:06.447Z,64.45
2018-09-17T22:28:35.947Z,64.46
2018-09-17T22:31:06.130Z,64.32
2018-09-17T22:33:35.557Z,64.07
2018-09-17T22:36:06.194Z,64.49
2018-09-17T22:38:35.578Z,64.49
2018-09-17T22:41:05.052Z,64.20
2018-09-17T22:43:34.469Z,63.93
2018-09-17T22:46:03.814Z,63.88
2018-09-17T22:48:33.154Z,63.57
2018-09-17T22:51:02.510Z,63.29
2018-09-17T22:53:31.863Z,63.23
2018-09-17T22:56:01.219Z,63.22
2018-09-17T22:58:30.596Z,62.62
2018-09-17T23:00:59.930Z,61.97
2018-09-17T23:03:29.865Z,61.88
2018-09-17T23:06:06.315Z,62.03
2018-09-17T23:08:43.524Z,61.54
2018-09-17T23:11:21.014Z,61.26
2018-09-17T23:13:58.103Z,61.15
2018-09-17T23:16:35.619Z,61.41
2018-09-17T23:19:14.716Z,60.32
2018-09-17T23:21:52.034Z,60.73
2018-09-17T23:24:29.579Z,60.25
2018-09-17T23:27:05.143Z,60.25
2018-09-17T23:29:41.596Z,60.65
2018-09-17T23:32:19.098Z,60.26
2018-09-17T23:34:57.135Z,60.22
2018-09-17T23:37:36.590Z,59.77
2018-09-17T23:40:21.736Z,59.67
2018-09-17T23:42:59.377Z,59.68
2018-09-17T23:45:37.373Z,59.30
2018-09-17T23:48:15.236Z,59.90
2018-09-17T23:50:52.276Z,59.81
2018-09-17T23:53:29.469Z,60.10
2018-09-17T23:56:06.281Z,60.17
2018-09-17T23:58:43.384Z,60.22
